Time,TemperatureF,DewpointF,PressureIn,WindDirection,WindDirectionDegrees,WindSpeedMPH,WindSpeedGustMPH,Humidity,HourlyPrecipIn,Conditions,Clouds,dailyrainin,SoftwareType,DateUTC
2013-03-31 00:08:00,30.9,27.9,29.85,WNW,289,3.0,5.8,88,0.00,,,-99.99,FreeWX-Wi 1.01,2013-03-31 05:08:00,
2013-03-31 00:18:00,30.7,27.7,29.85,WNW,290,3.0,5.4,88,0.00,,,-99.99,FreeWX-Wi 1.01,2013-03-31 05:18:00,
2013-03-31 00:28:00,30.7,27.7,29.85,WNW,291,2.0,4.5,88,0.00,,,-99.99,FreeWX-Wi 1.01,2013-03-31 05:28:00,
2013-03-31 00:38:00,30.7,27.7,29.85,WNW,289,2.0,5.4,88,0.00,,,-99.99,FreeWX-Wi 1.01,2013-03-31 05:38:00,
2013-03-31 00:48:00,30.7,27.7,29.85,WNW,288,3.0,5.8,88,0.00,,,-99.99,FreeWX-Wi 1.01,2013-03-31 05:48:00,
2013-03-31 00:58:00,30.7,27.9,29.85,WNW,289,3.0,5.8,89,0.00,,,-99.99,FreeWX-Wi 1.01,2013-03-31 05:58:00,
2013-03-31 01:08:00,30.7,27.9,29.88,WNW,288,3.0,7.6,89,0.00,,,-99.99,FreeWX-Wi 1.01,2013-03-31 06:08:00,
2013-03-31 01:18:00,30.9,28.0,29.85,WNW,286,3.0,7.6,89,0.00,,,-99.99,FreeWX-Wi 1.01,2013-03-31 06:18:00,
2013-03-31 01:28:00,31.1,28.6,29.85,WNW,284,3.0,7.6,90,0.00,,,-99.99,FreeWX-Wi 1.01,2013-03-31 06:28:00,
2013-03-31 01:38:00,31.5,28.9,29.85,WNW,285,3.0,8.3,90,0.00,,,-99.99,FreeWX-Wi 1.01,2013-03-31 06:38:00,
2013-03-31 01:48:00,31.5,29.1,29.85,WNW,287,4.0,10.5,91,0.00,,,-99.99,FreeWX-Wi 1.01,2013-03-31 06:48:00,
2013-03-31 01:58:00,31.8,29.8,29.85,WNW,287,4.0,8.7,92,0.00,,,-99.99,FreeWX-Wi 1.01,2013-03-31 06:58:00,
2013-03-31 02:08:00,32.0,30.0,29.85,WNW,289,4.0,6.3,92,0.00,,,-99.99,FreeWX-Wi 1.01,2013-03-31 07:08:00,
2013-03-31 02:18:00,32.2,30.4,29.85,WNW,287,4.0,8.3,93,0.00,,,-99.99,FreeWX-Wi 1.01,2013-03-31 07:18:00,
2013-03-31 02:28:00,32.4,30.6,29.85,WNW,282,4.0,7.2,93,0.00,,,-99.99,FreeWX-Wi 1.01,2013-03-31 07:28:00,
2013-03-31 02:38:00,32.4,30.7,29.85,West,278,3.0,6.3,94,0.00,,,-99.99,FreeWX-Wi 1.01,2013-03-31 07:38:00,
2013-03-31 02:48:00,32.5,31.3,29.85,West,280,3.0,5.4,95,0.00,,,-99.99,FreeWX-Wi 1.01,2013-03-31 07:48:00,
2013-03-31 02:58:00,32.5,31.3,29.85,WNW,282,3.0,8.3,95,0.00,,,-99.99,FreeWX-Wi 1.01,2013-03-31 07:58:00,
2013-03-31 03:08:00,32.5,31.5,29.85,WNW,283,3.0,10.1,96,0.00,,,-99.99,FreeWX-Wi 1.01,2013-03-31 08:08:00,
2013-03-31 03:18:00,32.5,31.5,29.85,West,281,4.0,8.3,96,0.00,,,-99.99,FreeWX-Wi 1.01,2013-03-31 08:18:00,
2013-03-31 03:28:00,32.5,31.8,29.85,West,281,3.0,6.7,97,0.00,,,-99.99,FreeWX-Wi 1.01,2013-03-31 08:28:00,
2013-03-31 03:38:00,32.5,31.8,29.85,WNW,285,4.0,8.7,97,0.00,,,-99.99,FreeWX-Wi 1.01,2013-03-31 08:38:00,
2013-03-31 03:48:00,32.5,31.8,29.82,WNW,288,4.0,7.6,97,0.00,,,-99.99,FreeWX-Wi 1.01,2013-03-31 08:48:00,
2013-03-31 03:58:00,32.5,31.8,29.82,WNW,286,4.0,9.6,97,0.00,,,-99.99,FreeWX-Wi 1.01,2013-03-31 08:58:00,
2013-03-31 04:08:00,32.5,32.5,29.82,WNW,284,4.0,8.3,100,0.00,,,-99.99,FreeWX-Wi 1.01,2013-03-31 09:08:00,
2013-03-31 04:18:00,32.7,32.7,29.82,WNW,282,4.0,8.7,100,0.00,,,-99.99,FreeWX-Wi 1.01,2013-03-31 09:18:00,
2013-03-31 04:28:00,32.7,32.7,29.82,WNW,283,4.0,11.4,100,0.00,,,-99.99,FreeWX-Wi 1.01,2013-03-31 09:28:00,
2013-03-31 04:38:00,32.7,32.7,29.82,WNW,287,5.0,8.1,100,0.00,,,-99.99,FreeWX-Wi 1.01,2013-03-31 09:38:00,
2013-03-31 04:48:00,32.7,32.7,29.82,WNW,291,5.0,8.1,100,0.00,,,-99.99,FreeWX-Wi 1.01,2013-03-31 09:48:00,
2013-03-31 04:58:00,32.7,32.7,29.82,WNW,290,4.0,8.7,100,0.00,,,-99.99,FreeWX-Wi 1.01,2013-03-31 09:58:00,
2013-03-31 05:08:00,32.5,32.5,29.82,WNW,287,4.0,8.1,100,0.00,,,-99.99,FreeWX-Wi 1.01,2013-03-31 10:08:00,
2013-03-31 05:18:00,32.5,32.5,29.82,WNW,286,4.0,10.5,100,0.00,,,-99.99,FreeWX-Wi 1.01,2013-03-31 10:18:00,
2013-03-31 05:28:00,32.2,32.2,29.82,WNW,286,4.0,6.3,100,0.00,,,-99.99,FreeWX-Wi 1.01,2013-03-31 10:28:00,
2013-03-31 05:38:00,32.0,32.0,29.82,WNW,286,4.0,8.3,100,0.00,,,-99.99,FreeWX-Wi 1.01,2013-03-31 10:38:00,
2013-03-31 05:48:00,31.6,31.6,29.82,WNW,286,3.0,6.3,100,0.00,,,-99.99,FreeWX-Wi 1.01,2013-03-31 10:48:00,
2013-03-31 05:58:00,31.5,31.5,29.82,WNW,284,3.0,6.3,100,0.00,,,-99.99,FreeWX-Wi 1.01,2013-03-31 10:58:00,
2013-03-31 06:08:00,31.6,31.6,29.82,West,279,3.0,7.6,100,0.00,,,-99.99,FreeWX-Wi 1.01,2013-03-31 11:08:00,
2013-03-31 06:18:00,31.8,31.8,29.82,West,276,3.0,7.6,100,0.00,,,-99.99,FreeWX-Wi 1.01,2013-03-31 11:18:00,
2013-03-31 06:28:00,32.2,32.2,29.82,West,273,4.0,8.3,100,0.00,,,-99.99,FreeWX-Wi 1.01,2013-03-31 11:28:00,
2013-03-31 06:38:00,32.4,32.4,29.82,West,275,4.0,10.1,100,0.00,,,-99.99,FreeWX-Wi 1.01,2013-03-31 11:38:00,
2013-03-31 06:48:00,32.5,32.5,29.79,West,277,4.0,8.3,100,0.00,,,-99.99,FreeWX-Wi 1.01,2013-03-31 11:48:00,
2013-03-31 06:58:00,32.5,32.5,29.79,West,278,4.0,8.7,100,0.00,,,-99.99,FreeWX-Wi 1.01,2013-03-31 11:58:00,
2013-03-31 07:08:00,32.5,32.5,29.79,West,277,4.0,6.7,100,0.00,,,-99.99,FreeWX-Wi 1.01,2013-03-31 12:08:00,
2013-03-31 07:18:00,32.4,32.4,29.79,West,276,4.0,8.1,100,0.00,,,-99.99,FreeWX-Wi 1.01,2013-03-31 12:18:00,
2013-03-31 07:28:00,32.4,32.4,29.79,West,276,4.0,7.6,100,0.00,,,-99.99,FreeWX-Wi 1.01,2013-03-31 12:28:00,
2013-03-31 07:38:00,32.5,32.5,29.79,WNW,282,4.0,9.6,100,0.00,,,-99.99,FreeWX-Wi 1.01,2013-03-31 12:38:00,
2013-03-31 07:48:00,32.9,32.9,29.82,WNW,287,4.0,10.5,100,0.00,,,-99.99,FreeWX-Wi 1.01,2013-03-31 12:48:00,
2013-03-31 07:58:00,33.1,33.1,29.82,WNW,289,5.0,8.3,100,0.00,,,-99.99,FreeWX-Wi 1.01,2013-03-31 12:58:00,
2013-03-31 08:08:00,33.1,33.1,29.82,WNW,289,5.0,13.2,100,0.00,,,-99.99,FreeWX-Wi 1.01,2013-03-31 13:08:00,
2013-03-31 08:18:00,33.3,33.3,29.82,WNW,291,5.0,10.1,100,0.00,,,-99.99,FreeWX-Wi 1.01,2013-03-31 13:18:00,
2013-03-31 08:28:00,33.1,33.1,29.82,WNW,295,5.0,8.3,100,0.00,,,-99.99,FreeWX-Wi 1.01,2013-03-31 13:28:00,
2013-03-31 08:38:00,33.1,33.1,29.82,WNW,301,5.0,11.0,100,0.00,,,-99.99,FreeWX-Wi 1.01,2013-03-31 13:38:00,
2013-03-31 08:48:00,33.1,33.1,29.82,WNW,301,4.0,11.9,100,0.00,,,-99.99,FreeWX-Wi 1.01,2013-03-31 13:48:00,
2013-03-31 08:58:00,33.3,32.2,29.82,WNW,299,5.0,12.8,96,0.00,,,-99.99,FreeWX-Wi 1.01,2013-03-31 13:58:00,
2013-03-31 09:08:00,33.3,31.3,29.82,WNW,298,4.0,10.1,92,0.00,,,-99.99,FreeWX-Wi 1.01,2013-03-31 14:08:00,
2013-03-31 09:18:00,33.3,30.0,29.82,WNW,299,4.0,10.1,88,0.00,,,-99.99,FreeWX-Wi 1.01,2013-03-31 14:18:00,
2013-03-31 09:28:00,33.6,29.3,29.82,WNW,298,4.0,11.0,84,0.00,,,-99.99,FreeWX-Wi 1.01,2013-03-31 14:28:00,
2013-03-31 09:38:00,33.8,28.6,29.82,WNW,298,5.0,10.5,81,0.00,,,-99.99,FreeWX-Wi 1.01,2013-03-31 14:38:00,
2013-03-31 09:48:00,34.0,27.9,29.82,WNW,295,5.0,12.3,78,0.00,,,-99.99,FreeWX-Wi 1.01,2013-03-31 14:48:00,
2013-03-31 09:58:00,34.2,27.3,29.85,WNW,295,5.0,7.6,76,0.00,,,-99.99,FreeWX-Wi 1.01,2013-03-31 14:58:00,
2013-03-31 10:08:00,34.0,26.6,29.85,WNW,297,5.0,10.1,74,0.00,,,-99.99,FreeWX-Wi 1.01,2013-03-31 15:08:00,
2013-03-31 10:18:00,34.3,25.9,29.82,WNW,300,5.0,10.5,71,0.00,,,-99.99,FreeWX-Wi 1.01,2013-03-31 15:18:00,
2013-03-31 10:28:00,34.7,24.8,29.85,WNW,301,5.0,14.5,67,0.00,,,-99.99,FreeWX-Wi 1.01,2013-03-31 15:28:00,
2013-03-31 10:38:00,34.7,23.0,29.85,WNW,301,6.0,11.0,62,0.00,,,-99.99,FreeWX-Wi 1.01,2013-03-31 15:38:00,
2013-03-31 10:48:00,34.9,22.8,29.85,NW,304,5.0,11.0,61,0.00,,,-99.99,FreeWX-Wi 1.01,2013-03-31 15:48:00,
2013-03-31 10:58:00,35.4,22.1,29.85,NW,308,5.0,11.0,58,0.00,,,-99.99,FreeWX-Wi 1.01,2013-03-31 15:58:00,
2013-03-31 11:08:00,36.5,21.9,29.85,NW,310,6.0,15.9,55,0.00,,,-99.99,FreeWX-Wi 1.01,2013-03-31 16:08:00,
2013-03-31 11:18:00,37.0,18.1,29.85,NW,309,7.0,16.8,46,0.00,,,-99.99,FreeWX-Wi 1.01,2013-03-31 16:18:00,
2013-03-31 11:28:00,37.6,18.1,29.85,NW,312,7.0,19.7,45,0.00,,,-99.99,FreeWX-Wi 1.01,2013-03-31 16:28:00,
2013-03-31 11:38:00,37.9,17.4,29.85,NW,315,7.0,19.2,43,0.00,,,-99.99,FreeWX-Wi 1.01,2013-03-31 16:38:00,
2013-03-31 11:48:00,38.1,18.1,29.85,NW,315,6.0,8.7,44,0.00,,,-99.99,FreeWX-Wi 1.01,2013-03-31 16:48:00,
2013-03-31 11:58:00,38.5,18.0,29.88,NW,318,6.0,11.9,43,0.00,,,-99.99,FreeWX-Wi 1.01,2013-03-31 16:58:00,
2013-03-31 12:08:00,38.8,18.3,29.88,NW,319,6.0,8.7,43,0.00,,,-99.99,FreeWX-Wi 1.01,2013-03-31 17:08:00,
2013-03-31 12:19:00,38.7,17.6,29.88,NW,320,6.0,10.5,42,0.00,,,-99.99,FreeWX-Wi 1.01,2013-03-31 17:19:00,
2013-03-31 12:29:00,38.7,16.5,29.88,NW,319,6.0,10.5,40,0.00,,,-99.99,FreeWX-Wi 1.01,2013-03-31 17:29:00,
2013-03-31 12:39:00,38.1,17.1,29.88,NW,317,6.0,15.0,42,0.00,,,-99.99,FreeWX-Wi 1.01,2013-03-31 17:39:00,
2013-03-31 12:49:00,37.9,15.8,29.88,NW,313,6.0,10.5,40,0.00,,,-99.99,FreeWX-Wi 1.01,2013-03-31 17:49:00,
2013-03-31 12:59:00,38.3,16.2,29.88,NW,310,7.0,15.0,40,0.00,,,-99.99,FreeWX-Wi 1.01,2013-03-31 17:59:00,
2013-03-31 13:09:00,37.9,15.8,29.88,NW,304,7.0,10.5,40,0.00,,,-99.99,FreeWX-Wi 1.01,2013-03-31 18:09:00,
2013-03-31 13:19:00,37.8,15.6,29.88,NW,305,7.0,12.3,40,0.00,,,-99.99,FreeWX-Wi 1.01,2013-03-31 18:19:00,
2013-03-31 13:29:00,37.6,15.4,29.88,NW,306,7.0,12.8,40,0.00,,,-99.99,FreeWX-Wi 1.01,2013-03-31 18:29:00,
2013-03-31 13:39:00,37.6,14.9,29.88,NW,308,7.0,17.4,39,0.00,,,-99.99,FreeWX-Wi 1.01,2013-03-31 18:39:00,
2013-03-31 13:49:00,38.1,15.4,29.91,NW,317,7.0,12.8,39,0.00,,,-99.99,FreeWX-Wi 1.01,2013-03-31 18:49:00,
2013-03-31 13:59:00,37.8,12.6,29.91,NW,322,7.0,14.5,35,0.00,,,-99.99,FreeWX-Wi 1.01,2013-03-31 18:59:00,
2013-03-31 14:09:00,38.3,15.6,29.91,NW,326,6.0,8.7,39,0.00,,,-99.99,FreeWX-Wi 1.01,2013-03-31 19:09:00,
2013-03-31 14:19:00,38.7,14.7,29.91,NW,323,6.0,12.3,37,0.00,,,-99.99,FreeWX-Wi 1.01,2013-03-31 19:19:00,
2013-03-31 14:29:00,38.7,15.8,29.91,NW,320,5.0,10.5,39,0.00,,,-99.99,FreeWX-Wi 1.01,2013-03-31 19:29:00,
2013-03-31 14:39:00,38.7,15.8,29.91,NW,321,6.0,11.0,39,0.00,,,-99.99,FreeWX-Wi 1.01,2013-03-31 19:39:00,
2013-03-31 14:49:00,38.8,16.0,29.91,NW,318,5.0,9.6,39,0.00,,,-99.99,FreeWX-Wi 1.01,2013-03-31 19:49:00,
2013-03-31 14:59:00,37.8,13.3,29.91,NW,323,6.0,13.2,36,0.00,,,-99.99,FreeWX-Wi 1.01,2013-03-31 19:59:00,
2013-03-31 15:09:00,37.9,13.5,29.91,NW,317,6.0,10.1,36,0.00,,,-99.99,FreeWX-Wi 1.01,2013-03-31 20:09:00,
2013-03-31 15:19:00,37.9,13.5,29.91,NW,321,6.0,13.2,36,0.00,,,-99.99,FreeWX-Wi 1.01,2013-03-31 20:19:00,
2013-03-31 15:29:00,38.3,13.6,29.91,NW,318,6.0,14.1,36,0.00,,,-99.99,FreeWX-Wi 1.01,2013-03-31 20:29:00,
2013-03-31 15:39:00,38.3,13.1,29.91,NW,321,6.0,12.8,35,0.00,,,-99.99,FreeWX-Wi 1.01,2013-03-31 20:39:00,
2013-03-31 15:49:00,37.9,12.0,29.91,NW,317,6.0,11.0,34,0.00,,,-99.99,FreeWX-Wi 1.01,2013-03-31 20:49:00,
2013-03-31 15:59:00,37.6,12.4,29.91,NW,312,6.0,11.4,35,0.00,,,-99.99,FreeWX-Wi 1.01,2013-03-31 20:59:00,
2013-03-31 16:09:00,38.1,12.9,29.91,NW,311,6.0,12.3,35,0.00,,,-99.99,FreeWX-Wi 1.01,2013-03-31 21:09:00,
2013-03-31 16:19:00,37.4,12.2,29.94,NW,308,6.0,12.3,35,0.00,,,-99.99,FreeWX-Wi 1.01,2013-03-31 21:19:00,
2013-03-31 16:29:00,37.2,11.5,29.94,NW,314,6.0,12.3,34,0.00,,,-99.99,FreeWX-Wi 1.01,2013-03-31 21:29:00,
2013-03-31 16:39:00,37.2,12.2,29.94,NW,318,6.0,11.9,35,0.00,,,-99.99,FreeWX-Wi 1.01,2013-03-31 21:39:00,
2013-03-31 16:49:00,37.8,12.6,29.94,NW,322,5.0,8.7,35,0.00,,,-99.99,FreeWX-Wi 1.01,2013-03-31 21:49:00,
2013-03-31 16:59:00,37.4,12.2,29.94,NW,320,5.0,10.5,35,0.00,,,-99.99,FreeWX-Wi 1.01,2013-03-31 21:59:00,
2013-03-31 17:09:00,37.4,12.9,29.94,NW,319,4.0,10.5,36,0.00,,,-99.99,FreeWX-Wi 1.01,2013-03-31 22:09:00,
2013-03-31 17:19:00,36.9,11.1,29.94,NW,321,5.0,10.5,34,0.00,,,-99.99,FreeWX-Wi 1.01,2013-03-31 22:19:00,
2013-03-31 17:29:00,36.1,11.1,29.94,NNW,328,5.0,12.3,35,0.00,,,-99.99,FreeWX-Wi 1.01,2013-03-31 22:29:00,
2013-03-31 17:39:00,36.0,10.4,29.94,NNW,327,6.0,11.9,34,0.00,,,-99.99,FreeWX-Wi 1.01,2013-03-31 22:39:00,
2013-03-31 17:49:00,35.4,10.6,29.94,NNW,328,6.0,10.5,35,0.00,,,-99.99,FreeWX-Wi 1.01,2013-03-31 22:49:00,
2013-03-31 17:59:00,35.2,10.4,29.97,NW,320,5.0,11.4,35,0.00,,,-99.99,FreeWX-Wi 1.01,2013-03-31 22:59:00,
2013-03-31 18:09:00,34.5,9.7,29.97,NW,314,5.0,8.7,35,0.00,,,-99.99,FreeWX-Wi 1.01,2013-03-31 23:09:00,
2013-03-31 18:19:00,33.4,8.1,29.97,NW,313,5.0,12.3,34,0.00,,,-99.99,FreeWX-Wi 1.01,2013-03-31 23:19:00,
2013-03-31 18:29:00,32.9,9.0,29.97,NW,316,5.0,12.8,36,0.00,,,-99.99,FreeWX-Wi 1.01,2013-03-31 23:29:00,
2013-03-31 18:39:00,32.2,8.2,29.97,NW,316,6.0,11.9,36,0.00,,,-99.99,FreeWX-Wi 1.01,2013-03-31 23:39:00,
2013-03-31 18:49:00,31.5,8.2,29.97,NW,314,5.0,11.0,37,0.00,,,-99.99,FreeWX-Wi 1.01,2013-03-31 23:49:00,
2013-03-31 18:59:00,30.6,9.1,30.00,NW,315,5.0,11.0,40,0.00,,,-99.99,FreeWX-Wi 1.01,2013-03-31 23:59:00,
2013-03-31 19:09:00,29.8,9.0,30.00,NW,315,5.0,10.5,41,0.00,,,-99.99,FreeWX-Wi 1.01,2013-04-01 00:09:00,
2013-03-31 19:19:00,28.9,8.2,30.00,NW,314,6.0,10.5,41,0.00,,,-99.99,FreeWX-Wi 1.01,2013-04-01 00:19:00,
2013-03-31 19:29:00,28.4,8.2,30.00,NW,314,5.0,11.9,42,0.00,,,-99.99,FreeWX-Wi 1.01,2013-04-01 00:29:00,
2013-03-31 19:39:00,27.9,7.7,30.00,NW,314,6.0,12.8,42,0.00,,,-99.99,FreeWX-Wi 1.01,2013-04-01 00:39:00,
2013-03-31 19:49:00,27.3,7.9,30.00,NW,312,6.0,10.1,43,0.00,,,-99.99,FreeWX-Wi 1.01,2013-04-01 00:49:00,
2013-03-31 19:59:00,27.1,7.2,30.00,NW,309,5.0,10.5,42,0.00,,,-99.99,FreeWX-Wi 1.01,2013-04-01 00:59:00,
2013-03-31 20:09:00,26.8,7.3,30.00,NW,314,5.0,11.0,43,0.00,,,-99.99,FreeWX-Wi 1.01,2013-04-01 01:09:00,
2013-03-31 20:19:00,26.4,7.0,30.00,NW,318,5.0,10.1,43,0.00,,,-99.99,FreeWX-Wi 1.01,2013-04-01 01:19:00,
2013-03-31 20:29:00,26.1,6.1,30.03,NW,323,5.0,10.5,42,0.00,,,-99.99,FreeWX-Wi 1.01,2013-04-01 01:29:00,
2013-03-31 20:39:00,25.9,5.9,30.03,NW,323,5.0,12.8,42,0.00,,,-99.99,FreeWX-Wi 1.01,2013-04-01 01:39:00,
2013-03-31 20:49:00,25.3,6.1,30.03,NW,325,6.0,13.2,43,0.00,,,-99.99,FreeWX-Wi 1.01,2013-04-01 01:49:00,
2013-03-31 21:00:00,25.2,5.9,30.03,NW,326,6.0,13.2,43,0.00,,,-99.99,FreeWX-Wi 1.01,2013-04-01 02:00:00,
2013-03-31 21:10:00,24.8,6.4,30.03,NW,324,6.0,12.3,45,0.00,,,-99.99,FreeWX-Wi 1.01,2013-04-01 02:10:00,
2013-03-31 21:20:00,24.4,6.3,30.03,NW,322,6.0,11.0,45,0.00,,,-99.99,FreeWX-Wi 1.01,2013-04-01 02:20:00,
2013-03-31 21:30:00,24.1,5.9,30.06,NW,320,6.0,10.5,45,0.00,,,-99.99,FreeWX-Wi 1.01,2013-04-01 02:30:00,
2013-03-31 21:40:00,23.7,6.4,30.06,NW,326,6.0,11.9,47,0.00,,,-99.99,FreeWX-Wi 1.01,2013-04-01 02:40:00,
2013-03-31 21:50:00,23.5,6.3,30.06,NNW,327,5.0,9.2,47,0.00,,,-99.99,FreeWX-Wi 1.01,2013-04-01 02:50:00,
2013-03-31 22:00:00,23.2,5.9,30.06,NNW,328,5.0,11.0,47,0.00,,,-99.99,FreeWX-Wi 1.01,2013-04-01 03:00:00,
2013-03-31 22:10:00,22.8,5.7,30.06,NNW,330,5.0,11.0,47,0.00,,,-99.99,FreeWX-Wi 1.01,2013-04-01 03:10:00,
2013-03-31 22:20:00,22.6,5.9,30.06,NNW,335,5.0,9.6,48,0.00,,,-99.99,FreeWX-Wi 1.01,2013-04-01 03:20:00,
2013-03-31 22:30:00,22.5,6.3,30.09,NNW,336,5.0,12.8,49,0.00,,,-99.99,FreeWX-Wi 1.01,2013-04-01 03:30:00,
2013-03-31 22:40:00,22.3,5.2,30.09,NNW,334,6.0,12.3,47,0.00,,,-99.99,FreeWX-Wi 1.01,2013-04-01 03:40:00,
2013-03-31 22:50:00,22.1,4.5,30.09,NNW,334,6.0,10.5,46,0.00,,,-99.99,FreeWX-Wi 1.01,2013-04-01 03:50:00,
2013-03-31 23:00:00,21.9,4.8,30.09,NNW,333,6.0,10.1,47,0.00,,,-99.99,FreeWX-Wi 1.01,2013-04-01 04:00:00,
2013-03-31 23:10:00,21.6,4.5,30.09,NNW,331,5.0,12.3,47,0.00,,,-99.99,FreeWX-Wi 1.01,2013-04-01 04:10:00,
2013-03-31 23:20:00,21.4,4.3,30.09,NNW,329,5.0,13.2,47,0.00,,,-99.99,FreeWX-Wi 1.01,2013-04-01 04:20:00,
2013-03-31 23:30:00,21.2,4.6,30.09,NNW,328,5.0,10.1,48,0.00,,,-99.99,FreeWX-Wi 1.01,2013-04-01 04:30:00,
2013-03-31 23:40:00,21.0,4.5,30.09,NNW,327,5.0,8.3,48,0.00,,,-99.99,FreeWX-Wi 1.01,2013-04-01 04:40:00,
2013-03-31 23:50:00,20.8,4.6,30.09,NW,324,4.0,8.3,49,0.00,,,-99.99,FreeWX-Wi 1.01,2013-04-01 04:50:00,